UAE52M OMDB-EDDF
Flight info
| Callsign | UAE52M |
|---|---|
| Flight time | N/A |
| Altitude | 38000 |
| Route | RIDAP M557 TUMAK L602 GADSI M860 SEPTU DCT VUSEB M860 NINVA/N0495F400 UM860 ODALI UL852 NEGEM DCT MAXOV DCT IRLOX DCT BALUX DCT TEKNO DCT ABETI DCT TAGAS DCT SUBEN DCT AKINI T161 DEBHI DEBHI1A |
| Aircraft | A388/J-SADE2E3FGHIJ3J4J5M1RWXY/LB1D1 |
Departure
| Time | N/A |
|---|---|
| Airport | Dubai International Airport (OMDB) |
Arrival
| Time | 2026-05-07 17:19 |
|---|---|
| Airport | Frankfurt Main Airport (EDDF) |
| Time | Latitude | Longitude | Altitude | Speed | Heading |
|---|---|---|---|---|---|
| 2026-05-07 16:50 | 48.76854 | 11.94905 | 38000 ft | 489 kts | 279° |
| 2026-05-07 16:51 | 48.77962 | 11.84738 | 38002 ft | 489 kts | 279° |
| 2026-05-07 16:51 | 48.79049 | 11.74554 | 38005 ft | 489 kts | 279° |
| 2026-05-07 16:52 | 48.80122 | 11.64377 | 38003 ft | 489 kts | 279° |
| 2026-05-07 16:52 | 48.81183 | 11.54183 | 38002 ft | 489 kts | 279° |
| 2026-05-07 16:53 | 48.82226 | 11.44054 | 38002 ft | 489 kts | 279° |
| 2026-05-07 16:53 | 48.83267 | 11.33854 | 38002 ft | 489 kts | 278° |
| 2026-05-07 16:54 | 48.85033 | 11.23941 | 37996 ft | 489 kts | 296° |
| 2026-05-07 16:54 | 48.89000 | 11.15617 | 37996 ft | 489 kts | 317° |
| 2026-05-07 16:55 | 48.94033 | 11.08655 | 37985 ft | 489 kts | 317° |
| 2026-05-07 16:55 | 48.96529 | 11.05169 | 37810 ft | 486 kts | 317° |
| 2026-05-07 16:55 | 48.99018 | 11.01679 | 37152 ft | 487 kts | 317° |
| 2026-05-07 16:55 | 49.01514 | 10.98173 | 36251 ft | 490 kts | 317° |
| 2026-05-07 16:56 | 49.03992 | 10.94689 | 35275 ft | 493 kts | 317° |
| 2026-05-07 16:56 | 49.06526 | 10.91122 | 34119 ft | 498 kts | 317° |
| 2026-05-07 16:56 | 49.11642 | 10.83904 | 32253 ft | 498 kts | 317° |
| 2026-05-07 16:57 | 49.14162 | 10.80338 | 31565 ft | 491 kts | 317° |
| 2026-05-07 16:57 | 49.16653 | 10.76808 | 30859 ft | 486 kts | 317° |
| 2026-05-07 16:57 | 49.19117 | 10.73311 | 30163 ft | 481 kts | 317° |
| 2026-05-07 16:57 | 49.21528 | 10.69808 | 29458 ft | 476 kts | 315° |
| 2026-05-07 16:58 | 49.23826 | 10.66196 | 28765 ft | 471 kts | 313° |
| 2026-05-07 16:58 | 49.26068 | 10.62583 | 28089 ft | 466 kts | 313° |
| 2026-05-07 16:58 | 49.28290 | 10.59010 | 27412 ft | 461 kts | 313° |
| 2026-05-07 16:58 | 49.30496 | 10.55487 | 26728 ft | 456 kts | 314° |
| 2026-05-07 16:59 | 49.32652 | 10.52060 | 26067 ft | 451 kts | 314° |
| 2026-05-07 16:59 | 49.34826 | 10.48611 | 25369 ft | 446 kts | 313° |
| 2026-05-07 16:59 | 49.36825 | 10.45004 | 24665 ft | 442 kts | 306° |
| 2026-05-07 16:59 | 49.38573 | 10.41157 | 23983 ft | 437 kts | 304° |
| 2026-05-07 17:00 | 49.40301 | 10.37353 | 23292 ft | 433 kts | 305° |
| 2026-05-07 17:00 | 49.42020 | 10.33599 | 22805 ft | 424 kts | 305° |
| 2026-05-07 17:00 | 49.43683 | 10.29964 | 22636 ft | 408 kts | 305° |
| 2026-05-07 17:00 | 49.45283 | 10.26458 | 22471 ft | 393 kts | 305° |
| 2026-05-07 17:01 | 49.46834 | 10.23052 | 22081 ft | 386 kts | 304° |
| 2026-05-07 17:01 | 49.48366 | 10.19677 | 21552 ft | 384 kts | 304° |
| 2026-05-07 17:01 | 49.49886 | 10.16324 | 21044 ft | 380 kts | 304° |
| 2026-05-07 17:01 | 49.51372 | 10.13041 | 20543 ft | 378 kts | 304° |
| 2026-05-07 17:02 | 49.52864 | 10.09741 | 20045 ft | 374 kts | 304° |
| 2026-05-07 17:02 | 49.54346 | 10.06460 | 19535 ft | 372 kts | 304° |
| 2026-05-07 17:02 | 49.55814 | 10.03205 | 19039 ft | 369 kts | 304° |
| 2026-05-07 17:02 | 49.57270 | 9.99972 | 18812 ft | 367 kts | 304° |
| 2026-05-07 17:03 | 49.58726 | 9.96737 | 18525 ft | 367 kts | 304° |
| 2026-05-07 17:03 | 49.60172 | 9.93520 | 18224 ft | 365 kts | 304° |
| 2026-05-07 17:03 | 49.61615 | 9.90303 | 17903 ft | 362 kts | 304° |
| 2026-05-07 17:03 | 49.63043 | 9.87118 | 17605 ft | 361 kts | 304° |
| 2026-05-07 17:04 | 49.64446 | 9.83982 | 17305 ft | 359 kts | 304° |
| 2026-05-07 17:04 | 49.65864 | 9.80812 | 17005 ft | 358 kts | 304° |
| 2026-05-07 17:04 | 49.67274 | 9.77654 | 16703 ft | 356 kts | 304° |
| 2026-05-07 17:04 | 49.68675 | 9.74513 | 16409 ft | 355 kts | 304° |
| 2026-05-07 17:05 | 49.70070 | 9.71382 | 16117 ft | 353 kts | 304° |
| 2026-05-07 17:05 | 49.71458 | 9.68264 | 15757 ft | 352 kts | 304° |
| 2026-05-07 17:05 | 49.72839 | 9.65159 | 15381 ft | 348 kts | 304° |
| 2026-05-07 17:05 | 49.74204 | 9.62084 | 14860 ft | 346 kts | 304° |
| 2026-05-07 17:06 | 49.75571 | 9.59108 | 14366 ft | 343 kts | 310° |
| 2026-05-07 17:06 | 49.77139 | 9.56339 | 13845 ft | 341 kts | 310° |
| 2026-05-07 17:06 | 49.78682 | 9.53577 | 13353 ft | 338 kts | 310° |
| 2026-05-07 17:06 | 49.80216 | 9.50835 | 12847 ft | 336 kts | 310° |
| 2026-05-07 17:07 | 49.81746 | 9.48120 | 12364 ft | 333 kts | 311° |
| 2026-05-07 17:07 | 49.83267 | 9.45432 | 11851 ft | 331 kts | 311° |
| 2026-05-07 17:07 | 49.84772 | 9.42779 | 11580 ft | 322 kts | 311° |
| 2026-05-07 17:07 | 49.86216 | 9.40235 | 11344 ft | 306 kts | 311° |
| 2026-05-07 17:08 | 49.87585 | 9.37823 | 11035 ft | 294 kts | 311° |
| 2026-05-07 17:08 | 49.88945 | 9.35417 | 10075 ft | 303 kts | 311° |
| 2026-05-07 17:08 | 49.90353 | 9.32912 | 8994 ft | 317 kts | 311° |
| 2026-05-07 17:08 | 49.91781 | 9.30390 | 8685 ft | 302 kts | 311° |
| 2026-05-07 17:09 | 49.93125 | 9.28019 | 8490 ft | 285 kts | 311° |
| 2026-05-07 17:09 | 49.94419 | 9.25733 | 7994 ft | 280 kts | 311° |
| 2026-05-07 17:09 | 49.95696 | 9.23471 | 7448 ft | 277 kts | 311° |
| 2026-05-07 17:09 | 49.96963 | 9.21223 | 7099 ft | 276 kts | 311° |
| 2026-05-07 17:10 | 49.98223 | 9.18984 | 6992 ft | 275 kts | 311° |
| 2026-05-07 17:10 | 49.99483 | 9.16743 | 7002 ft | 275 kts | 311° |
| 2026-05-07 17:10 | 50.00743 | 9.14501 | 6901 ft | 274 kts | 311° |
| 2026-05-07 17:10 | 50.01991 | 9.12278 | 6552 ft | 274 kts | 311° |
| 2026-05-07 17:11 | 50.03228 | 9.10074 | 6172 ft | 271 kts | 311° |
| 2026-05-07 17:11 | 50.04479 | 9.07843 | 5580 ft | 270 kts | 311° |
| 2026-05-07 17:11 | 50.05708 | 9.05647 | 5073 ft | 268 kts | 311° |
| 2026-05-07 17:11 | 50.06911 | 9.03501 | 4534 ft | 266 kts | 310° |
| 2026-05-07 17:12 | 50.08121 | 9.01338 | 4145 ft | 264 kts | 310° |
| 2026-05-07 17:12 | 50.09321 | 8.99188 | 4004 ft | 263 kts | 310° |
| 2026-05-07 17:12 | 50.10281 | 8.96861 | 4010 ft | 249 kts | 287° |
| 2026-05-07 17:12 | 50.10697 | 8.94383 | 4018 ft | 225 kts | 283° |
| 2026-05-07 17:13 | 50.11045 | 8.92135 | 4007 ft | 200 kts | 282° |
| 2026-05-07 17:13 | 50.11170 | 8.90135 | 4024 ft | 179 kts | 268° |
| 2026-05-07 17:13 | 50.10971 | 8.88228 | 4004 ft | 178 kts | 256° |
| 2026-05-07 17:13 | 50.10605 | 8.86405 | 4004 ft | 179 kts | 251° |
| 2026-05-07 17:14 | 50.10179 | 8.84592 | 3877 ft | 175 kts | 250° |
| 2026-05-07 17:14 | 50.09758 | 8.82815 | 3614 ft | 176 kts | 250° |
| 2026-05-07 17:14 | 50.09333 | 8.81030 | 3375 ft | 177 kts | 250° |
| 2026-05-07 17:14 | 50.08907 | 8.79236 | 3122 ft | 176 kts | 250° |
| 2026-05-07 17:15 | 50.08483 | 8.77451 | 2886 ft | 176 kts | 250° |
| 2026-05-07 17:15 | 50.08059 | 8.75671 | 2654 ft | 175 kts | 250° |
| 2026-05-07 17:15 | 50.07637 | 8.73900 | 2415 ft | 174 kts | 250° |
| 2026-05-07 17:15 | 50.07225 | 8.72171 | 2185 ft | 161 kts | 250° |
| 2026-05-07 17:16 | 50.06858 | 8.70629 | 1981 ft | 146 kts | 250° |
| 2026-05-07 17:16 | 50.06515 | 8.69186 | 1789 ft | 142 kts | 250° |
| 2026-05-07 17:16 | 50.06173 | 8.67749 | 1617 ft | 141 kts | 250° |
| 2026-05-07 17:16 | 50.05832 | 8.66322 | 1425 ft | 141 kts | 250° |
| 2026-05-07 17:17 | 50.05494 | 8.64899 | 1247 ft | 140 kts | 250° |
| 2026-05-07 17:17 | 50.05157 | 8.63485 | 1053 ft | 139 kts | 250° |
| 2026-05-07 17:17 | 50.04821 | 8.62073 | 868 ft | 139 kts | 250° |
| 2026-05-07 17:17 | 50.04486 | 8.60666 | 674 ft | 138 kts | 250° |
| 2026-05-07 17:18 | 50.04150 | 8.59273 | 471 ft | 137 kts | 249° |
| 2026-05-07 17:18 | 50.03813 | 8.57914 | 370 ft | 121 kts | 252° |
| 2026-05-07 17:18 | 50.03600 | 8.56952 | 362 ft | 72 kts | 249° |
| 2026-05-07 17:18 | 50.03460 | 8.56363 | 363 ft | 53 kts | 250° |
| 2026-05-07 17:19 | 50.03365 | 8.55969 | 358 ft | 27 kts | 249° |
| 2026-05-07 17:19 | 50.03315 | 8.55687 | 355 ft | 27 kts | 265° |
| 2026-05-07 17:19 | 50.03323 | 8.55414 | 355 ft | 10 kts | 279° |
| 2026-05-07 17:19 | 50.03331 | 8.55340 | 352 ft | 1 kts | 280° |
| 2026-05-07 17:20 | 50.03337 | 8.55293 | 351 ft | 8 kts | 281° |
| 2026-05-07 17:20 | 50.03340 | 8.55269 | 347 ft | 0 kts | 281° |
| 2026-05-07 17:20 | 50.03351 | 8.55210 | 354 ft | 10 kts | 300° |
| 2026-05-07 17:20 | 50.03404 | 8.55179 | 352 ft | 9 kts | 25° |
| 2026-05-07 17:21 | 50.03445 | 8.55272 | 354 ft | 13 kts | 70° |
| 2026-05-07 17:21 | 50.03473 | 8.55390 | 355 ft | 0 kts | 70° |
| 2026-05-07 17:21 | 50.03476 | 8.55403 | 356 ft | 4 kts | 70° |
| 2026-05-07 17:21 | 50.03503 | 8.55520 | 356 ft | 16 kts | 69° |
| 2026-05-07 17:22 | 50.03545 | 8.55695 | 359 ft | 18 kts | 69° |
| 2026-05-07 17:22 | 50.03584 | 8.55859 | 361 ft | 8 kts | 70° |
| 2026-05-07 17:22 | 50.03609 | 8.55963 | 362 ft | 12 kts | 69° |
| 2026-05-07 17:22 | 50.03626 | 8.56034 | 358 ft | 2 kts | 69° |
| 2026-05-07 17:23 | 50.03638 | 8.56086 | 364 ft | 7 kts | 69° |
| 2026-05-07 17:23 | 50.03662 | 8.56183 | 362 ft | 12 kts | 69° |
| 2026-05-07 17:23 | 50.03698 | 8.56331 | 361 ft | 16 kts | 70° |
| 2026-05-07 17:23 | 50.03745 | 8.56529 | 365 ft | 21 kts | 70° |
| 2026-05-07 17:24 | 50.03798 | 8.56754 | 365 ft | 23 kts | 70° |
| 2026-05-07 17:24 | 50.03855 | 8.56992 | 366 ft | 24 kts | 70° |
| 2026-05-07 17:24 | 50.03910 | 8.57225 | 371 ft | 23 kts | 70° |
| 2026-05-07 17:24 | 50.03965 | 8.57456 | 373 ft | 20 kts | 70° |
| 2026-05-07 17:25 | 50.03991 | 8.57564 | 372 ft | 12 kts | 70° |
| 2026-05-07 17:25 | 50.04023 | 8.57699 | 373 ft | 9 kts | 70° |
| 2026-05-07 17:25 | 50.04042 | 8.57807 | 373 ft | 11 kts | 101° |
| 2026-05-07 17:25 | 50.04032 | 8.57844 | 375 ft | 4 kts | 131° |
| 2026-05-07 17:26 | 50.03998 | 8.57877 | 374 ft | 6 kts | 156° |
| 2026-05-07 17:26 | 50.03942 | 8.57915 | 374 ft | 12 kts | 159° |
| 2026-05-07 17:26 | 50.03848 | 8.57967 | 371 ft | 17 kts | 160° |
| 2026-05-07 17:26 | 50.03736 | 8.58030 | 371 ft | 14 kts | 160° |
| 2026-05-07 17:27 | 50.03643 | 8.58082 | 367 ft | 12 kts | 165° |
| 2026-05-07 17:27 | 50.03584 | 8.58054 | 370 ft | 10 kts | 234° |
| 2026-05-07 17:27 | 50.03562 | 8.57986 | 369 ft | 0 kts | 248° |
| 2026-05-07 17:27 | 50.03557 | 8.57964 | 366 ft | 5 kts | 248° |
| 2026-05-07 17:28 | 50.03536 | 8.57880 | 368 ft | 11 kts | 249° |
| 2026-05-07 17:28 | 50.03501 | 8.57736 | 368 ft | 17 kts | 249° |
| 2026-05-07 17:28 | 50.03474 | 8.57624 | 369 ft | 5 kts | 249° |
| 2026-05-07 17:28 | 50.03467 | 8.57595 | 368 ft | 6 kts | 250° |
| 2026-05-07 17:29 | 50.03445 | 8.57501 | 367 ft | 12 kts | 250° |
| 2026-05-07 17:29 | 50.03411 | 8.57356 | 363 ft | 15 kts | 250° |
| 2026-05-07 17:29 | 50.03350 | 8.57275 | 365 ft | 11 kts | 165° |
| 2026-05-07 17:29 | 50.03298 | 8.57372 | 366 ft | 14 kts | 115° |
| 2026-05-07 17:30 | 50.03273 | 8.57451 | 363 ft | 2 kts | 130° |
| 2026-05-07 17:30 | 50.03261 | 8.57464 | 360 ft | 2 kts | 165° |
| 2026-05-07 17:30 | 50.03246 | 8.57464 | 362 ft | 3 kts | 200° |
| 2026-05-07 17:30 | 50.03230 | 8.57452 | 365 ft | 1 kts | 206° |
| 2026-05-07 17:31 | 50.03226 | 8.57449 | 365 ft | 2 kts | 206° |
| 2026-05-07 17:31 | 50.03201 | 8.57430 | 368 ft | 4 kts | 205° |
| 2026-05-07 17:31 | 50.03188 | 8.57421 | 366 ft | 0 kts | 204° |
| 2026-05-07 17:31 | 50.03183 | 8.57417 | 367 ft | 0 kts | 204° |